sensor_id;sensor_type;location;lat;lon;timestamp;temperature;humidity
13322;DHT22;6730;46.248;6.930;2023-08-17T00:01:34;24.40;90.30
13322;DHT22;6730;46.248;6.930;2023-08-17T00:04:00;24.00;90.80
13322;DHT22;6730;46.248;6.930;2023-08-17T00:06:26;23.70;91.10
13322;DHT22;6730;46.248;6.930;2023-08-17T00:08:52;23.60;91.40
13322;DHT22;6730;46.248;6.930;2023-08-17T00:11:17;23.40;91.50
13322;DHT22;6730;46.248;6.930;2023-08-17T00:13:43;23.20;91.70
13322;DHT22;6730;46.248;6.930;2023-08-17T00:16:08;23.10;91.90
13322;DHT22;6730;46.248;6.930;2023-08-17T00:18:34;23.10;92.30
13322;DHT22;6730;46.248;6.930;2023-08-17T00:21:00;23.00;92.00
13322;DHT22;6730;46.248;6.930;2023-08-17T00:23:25;23.00;92.00
13322;DHT22;6730;46.248;6.930;2023-08-17T00:25:51;23.00;92.00
13322;DHT22;6730;46.248;6.930;2023-08-17T00:28:17;22.80;92.10
13322;DHT22;6730;46.248;6.930;2023-08-17T00:30:42;22.70;92.10
13322;DHT22;6730;46.248;6.930;2023-08-17T00:33:08;23.00;91.70
13322;DHT22;6730;46.248;6.930;2023-08-17T00:35:34;23.10;91.60
13322;DHT22;6730;46.248;6.930;2023-08-17T00:38:00;23.10;91.70
13322;DHT22;6730;46.248;6.930;2023-08-17T00:40:25;23.20;91.80
13322;DHT22;6730;46.248;6.930;2023-08-17T00:42:51;23.20;91.80
13322;DHT22;6730;46.248;6.930;2023-08-17T00:45:18;23.00;92.00
13322;DHT22;6730;46.248;6.930;2023-08-17T00:47:44;23.00;92.10
13322;DHT22;6730;46.248;6.930;2023-08-17T00:50:11;22.90;92.00
13322;DHT22;6730;46.248;6.930;2023-08-17T00:52:38;22.90;91.90
13322;DHT22;6730;46.248;6.930;2023-08-17T00:55:05;22.70;92.20
13322;DHT22;6730;46.248;6.930;2023-08-17T00:57:31;22.60;92.20
13322;DHT22;6730;46.248;6.930;2023-08-17T00:59:58;22.80;92.00
13322;DHT22;6730;46.248;6.930;2023-08-17T01:02:24;23.10;91.60
13322;DHT22;6730;46.248;6.930;2023-08-17T01:04:50;23.30;91.30
13322;DHT22;6730;46.248;6.930;2023-08-17T01:07:16;23.50;91.10
13322;DHT22;6730;46.248;6.930;2023-08-17T01:09:41;23.70;91.00
13322;DHT22;6730;46.248;6.930;2023-08-17T01:12:18;23.60;91.00
13322;DHT22;6730;46.248;6.930;2023-08-17T01:17:29;23.60;91.00
13322;DHT22;6730;46.248;6.930;2023-08-17T01:19:58;23.30;91.40
13322;DHT22;6730;46.248;6.930;2023-08-17T01:22:24;23.00;91.60
13322;DHT22;6730;46.248;6.930;2023-08-17T01:24:54;22.90;91.80
13322;DHT22;6730;46.248;6.930;2023-08-17T01:27:23;22.90;91.90
13322;DHT22;6730;46.248;6.930;2023-08-17T01:29:50;22.80;91.90
13322;DHT22;6730;46.248;6.930;2023-08-17T01:32:30;22.90;91.80
13322;DHT22;6730;46.248;6.930;2023-08-17T01:35:11;23.10;91.40
13322;DHT22;6730;46.248;6.930;2023-08-17T01:37:40;23.00;91.80
13322;DHT22;6730;46.248;6.930;2023-08-17T01:40:08;22.90;91.90
13322;DHT22;6730;46.248;6.930;2023-08-17T01:42:38;22.70;92.10
13322;DHT22;6730;46.248;6.930;2023-08-17T01:45:05;22.60;92.20
13322;DHT22;6730;46.248;6.930;2023-08-17T01:47:31;22.70;92.10
13322;DHT22;6730;46.248;6.930;2023-08-17T01:49:56;22.70;92.10
13322;DHT22;6730;46.248;6.930;2023-08-17T01:52:26;22.80;92.20
13322;DHT22;6730;46.248;6.930;2023-08-17T01:54:53;22.60;92.40
13322;DHT22;6730;46.248;6.930;2023-08-17T01:57:21;22.50;92.60
13322;DHT22;6730;46.248;6.930;2023-08-17T01:59:47;22.60;92.30
13322;DHT22;6730;46.248;6.930;2023-08-17T02:02:13;22.60;92.00
13322;DHT22;6730;46.248;6.930;2023-08-17T02:04:40;22.90;91.80
13322;DHT22;6730;46.248;6.930;2023-08-17T02:07:06;23.00;91.60
13322;DHT22;6730;46.248;6.930;2023-08-17T02:09:32;23.20;91.40
13322;DHT22;6730;46.248;6.930;2023-08-17T02:11:57;23.40;91.20
13322;DHT22;6730;46.248;6.930;2023-08-17T02:14:23;23.40;91.20
13322;DHT22;6730;46.248;6.930;2023-08-17T02:16:49;23.30;91.60
13322;DHT22;6730;46.248;6.930;2023-08-17T02:19:14;23.20;91.70
13322;DHT22;6730;46.248;6.930;2023-08-17T02:21:40;23.30;91.40
13322;DHT22;6730;46.248;6.930;2023-08-17T02:24:06;23.30;91.60
13322;DHT22;6730;46.248;6.930;2023-08-17T02:26:32;23.40;91.30
13322;DHT22;6730;46.248;6.930;2023-08-17T02:28:57;23.60;91.10
13322;DHT22;6730;46.248;6.930;2023-08-17T02:31:23;23.60;91.20
13322;DHT22;6730;46.248;6.930;2023-08-17T02:33:48;23.60;91.20
13322;DHT22;6730;46.248;6.930;2023-08-17T02:36:14;23.60;91.50
13322;DHT22;6730;46.248;6.930;2023-08-17T02:38:40;23.30;91.90
13322;DHT22;6730;46.248;6.930;2023-08-17T02:41:05;22.80;92.40
13322;DHT22;6730;46.248;6.930;2023-08-17T02:43:31;22.90;92.00
13322;DHT22;6730;46.248;6.930;2023-08-17T02:45:57;23.10;91.80
13322;DHT22;6730;46.248;6.930;2023-08-17T02:48:24;23.20;91.70
13322;DHT22;6730;46.248;6.930;2023-08-17T02:50:50;23.20;91.70
13322;DHT22;6730;46.248;6.930;2023-08-17T02:53:16;23.30;91.50
13322;DHT22;6730;46.248;6.930;2023-08-17T02:55:41;23.30;91.50
13322;DHT22;6730;46.248;6.930;2023-08-17T02:58:07;23.30;91.50
13322;DHT22;6730;46.248;6.930;2023-08-17T03:00:33;23.40;91.50
13322;DHT22;6730;46.248;6.930;2023-08-17T03:02:59;23.30;91.60
13322;DHT22;6730;46.248;6.930;2023-08-17T03:05:24;23.20;91.80
13322;DHT22;6730;46.248;6.930;2023-08-17T03:07:50;22.90;92.00
13322;DHT22;6730;46.248;6.930;2023-08-17T03:10:16;22.70;92.20
13322;DHT22;6730;46.248;6.930;2023-08-17T03:12:42;22.70;92.10
13322;DHT22;6730;46.248;6.930;2023-08-17T03:15:08;22.80;91.90
13322;DHT22;6730;46.248;6.930;2023-08-17T03:17:34;22.80;92.10
13322;DHT22;6730;46.248;6.930;2023-08-17T03:20:00;22.80;91.90
13322;DHT22;6730;46.248;6.930;2023-08-17T03:22:26;22.90;91.80
13322;DHT22;6730;46.248;6.930;2023-08-17T03:24:51;22.70;92.00
13322;DHT22;6730;46.248;6.930;2023-08-17T03:27:20;22.70;91.90
13322;DHT22;6730;46.248;6.930;2023-08-17T03:29:45;22.40;92.40
13322;DHT22;6730;46.248;6.930;2023-08-17T03:32:11;22.40;92.40
13322;DHT22;6730;46.248;6.930;2023-08-17T03:34:37;22.40;92.10
13322;DHT22;6730;46.248;6.930;2023-08-17T03:37:08;22.50;92.10
13322;DHT22;6730;46.248;6.930;2023-08-17T03:39:34;22.50;92.30
13322;DHT22;6730;46.248;6.930;2023-08-17T03:42:02;22.50;92.40
13322;DHT22;6730;46.248;6.930;2023-08-17T03:44:28;22.60;92.20
13322;DHT22;6730;46.248;6.930;2023-08-17T03:46:54;22.60;92.30
13322;DHT22;6730;46.248;6.930;2023-08-17T03:49:22;22.50;92.50
13322;DHT22;6730;46.248;6.930;2023-08-17T03:51:48;22.30;92.50
13322;DHT22;6730;46.248;6.930;2023-08-17T03:54:14;22.20;92.90
13322;DHT22;6730;46.248;6.930;2023-08-17T03:56:39;22.40;92.20
13322;DHT22;6730;46.248;6.930;2023-08-17T03:59:05;22.60;92.10
13322;DHT22;6730;46.248;6.930;2023-08-17T04:01:31;22.50;92.20
13322;DHT22;6730;46.248;6.930;2023-08-17T04:03:56;22.50;92.30
13322;DHT22;6730;46.248;6.930;2023-08-17T04:06:22;22.60;92.10
13322;DHT22;6730;46.248;6.930;2023-08-17T04:08:48;22.50;92.10
13322;DHT22;6730;46.248;6.930;2023-08-17T04:11:13;22.60;92.00
13322;DHT22;6730;46.248;6.930;2023-08-17T04:13:39;22.50;91.90
13322;DHT22;6730;46.248;6.930;2023-08-17T04:16:05;22.60;91.90
13322;DHT22;6730;46.248;6.930;2023-08-17T04:18:31;22.60;92.10
13322;DHT22;6730;46.248;6.930;2023-08-17T04:20:56;22.40;92.00
13322;DHT22;6730;46.248;6.930;2023-08-17T04:23:22;22.40;92.10
13322;DHT22;6730;46.248;6.930;2023-08-17T04:25:51;22.40;92.20
13322;DHT22;6730;46.248;6.930;2023-08-17T04:28:16;22.20;92.50
13322;DHT22;6730;46.248;6.930;2023-08-17T04:30:42;22.10;92.60
13322;DHT22;6730;46.248;6.930;2023-08-17T04:33:08;22.10;92.60
13322;DHT22;6730;46.248;6.930;2023-08-17T04:35:34;22.00;92.70
13322;DHT22;6730;46.248;6.930;2023-08-17T04:38:00;22.00;92.90
13322;DHT22;6730;46.248;6.930;2023-08-17T04:40:25;21.90;93.00
13322;DHT22;6730;46.248;6.930;2023-08-17T04:42:52;21.80;93.00
13322;DHT22;6730;46.248;6.930;2023-08-17T04:45:17;21.80;93.00
13322;DHT22;6730;46.248;6.930;2023-08-17T04:47:43;22.00;92.60
13322;DHT22;6730;46.248;6.930;2023-08-17T04:50:09;22.30;92.30
13322;DHT22;6730;46.248;6.930;2023-08-17T04:52:35;22.30;92.40
13322;DHT22;6730;46.248;6.930;2023-08-17T04:55:00;22.10;92.80
13322;DHT22;6730;46.248;6.930;2023-08-17T04:57:26;22.00;92.90
13322;DHT22;6730;46.248;6.930;2023-08-17T04:59:53;22.00;92.80
13322;DHT22;6730;46.248;6.930;2023-08-17T05:02:19;22.00;92.70
13322;DHT22;6730;46.248;6.930;2023-08-17T05:04:46;22.00;93.00
13322;DHT22;6730;46.248;6.930;2023-08-17T05:07:12;22.00;92.90
13322;DHT22;6730;46.248;6.930;2023-08-17T05:09:37;22.10;92.90
13322;DHT22;6730;46.248;6.930;2023-08-17T05:12:03;21.90;93.30
13322;DHT22;6730;46.248;6.930;2023-08-17T05:14:29;21.70;93.60
13322;DHT22;6730;46.248;6.930;2023-08-17T05:16:54;22.00;92.80
13322;DHT22;6730;46.248;6.930;2023-08-17T05:19:20;22.30;92.90
13322;DHT22;6730;46.248;6.930;2023-08-17T05:21:46;22.30;93.10
13322;DHT22;6730;46.248;6.930;2023-08-17T05:24:11;22.30;92.90
13322;DHT22;6730;46.248;6.930;2023-08-17T05:26:37;22.60;92.40
13322;DHT22;6730;46.248;6.930;2023-08-17T05:29:03;22.70;92.10
13322;DHT22;6730;46.248;6.930;2023-08-17T05:31:28;22.90;92.00
13322;DHT22;6730;46.248;6.930;2023-08-17T05:33:54;22.90;92.40
13322;DHT22;6730;46.248;6.930;2023-08-17T05:36:20;22.90;93.20
13322;DHT22;6730;46.248;6.930;2023-08-17T05:38:45;22.70;93.00
13322;DHT22;6730;46.248;6.930;2023-08-17T05:41:11;22.70;93.30
13322;DHT22;6730;46.248;6.930;2023-08-17T05:43:36;22.50;93.70
13322;DHT22;6730;46.248;6.930;2023-08-17T05:46:02;22.50;94.50
13322;DHT22;6730;46.248;6.930;2023-08-17T05:48:28;22.50;93.70
13322;DHT22;6730;46.248;6.930;2023-08-17T05:50:55;22.60;93.30
13322;DHT22;6730;46.248;6.930;2023-08-17T05:53:22;22.40;95.10
13322;DHT22;6730;46.248;6.930;2023-08-17T05:55:47;22.00;95.50
13322;DHT22;6730;46.248;6.930;2023-08-17T05:58:13;22.30;93.70
13322;DHT22;6730;46.248;6.930;2023-08-17T06:00:39;22.40;96.20
13322;DHT22;6730;46.248;6.930;2023-08-17T06:03:05;22.40;96.90
13322;DHT22;6730;46.248;6.930;2023-08-17T06:05:30;22.60;96.60
13322;DHT22;6730;46.248;6.930;2023-08-17T06:07:56;22.70;95.30
13322;DHT22;6730;46.248;6.930;2023-08-17T06:10:25;22.70;97.90
13322;DHT22;6730;46.248;6.930;2023-08-17T06:12:55;22.60;98.10
13322;DHT22;6730;46.248;6.930;2023-08-17T06:15:22;22.60;97.50
13322;DHT22;6730;46.248;6.930;2023-08-17T06:17:48;22.80;96.80
13322;DHT22;6730;46.248;6.930;2023-08-17T06:20:16;22.80;96.40
13322;DHT22;6730;46.248;6.930;2023-08-17T06:22:42;22.90;95.20
13322;DHT22;6730;46.248;6.930;2023-08-17T06:25:08;22.40;97.70
13322;DHT22;6730;46.248;6.930;2023-08-17T06:27:35;21.50;99.30
13322;DHT22;6730;46.248;6.930;2023-08-17T06:30:02;21.10;99.30
13322;DHT22;6730;46.248;6.930;2023-08-17T06:32:29;20.90;99.10
13322;DHT22;6730;46.248;6.930;2023-08-17T06:34:54;20.90;99.90
13322;DHT22;6730;46.248;6.930;2023-08-17T06:37:20;21.00;99.90
13322;DHT22;6730;46.248;6.930;2023-08-17T06:39:46;21.10;99.80
13322;DHT22;6730;46.248;6.930;2023-08-17T06:42:11;21.10;99.90
13322;DHT22;6730;46.248;6.930;2023-08-17T06:44:38;21.30;99.50
13322;DHT22;6730;46.248;6.930;2023-08-17T06:47:03;21.40;99.40
13322;DHT22;6730;46.248;6.930;2023-08-17T06:49:30;21.80;98.10
13322;DHT22;6730;46.248;6.930;2023-08-17T06:51:56;22.10;98.20
13322;DHT22;6730;46.248;6.930;2023-08-17T06:54:21;21.60;98.10
13322;DHT22;6730;46.248;6.930;2023-08-17T06:56:47;21.40;98.90
13322;DHT22;6730;46.248;6.930;2023-08-17T06:59:16;21.10;99.30
13322;DHT22;6730;46.248;6.930;2023-08-17T07:01:42;20.90;99.40
13322;DHT22;6730;46.248;6.930;2023-08-17T07:04:07;20.90;99.60
13322;DHT22;6730;46.248;6.930;2023-08-17T07:06:34;20.90;99.60
13322;DHT22;6730;46.248;6.930;2023-08-17T07:09:00;21.10;98.80
13322;DHT22;6730;46.248;6.930;2023-08-17T07:11:25;21.30;99.90
13322;DHT22;6730;46.248;6.930;2023-08-17T07:13:51;21.50;99.50
13322;DHT22;6730;46.248;6.930;2023-08-17T07:16:17;21.40;99.20
13322;DHT22;6730;46.248;6.930;2023-08-17T07:18:42;21.40;98.80
13322;DHT22;6730;46.248;6.930;2023-08-17T07:21:08;21.20;99.50
13322;DHT22;6730;46.248;6.930;2023-08-17T07:23:34;21.00;99.80
13322;DHT22;6730;46.248;6.930;2023-08-17T07:25:59;21.20;99.10
13322;DHT22;6730;46.248;6.930;2023-08-17T07:28:25;21.70;98.30
13322;DHT22;6730;46.248;6.930;2023-08-17T07:30:51;22.10;97.70
13322;DHT22;6730;46.248;6.930;2023-08-17T07:33:17;22.30;98.50
13322;DHT22;6730;46.248;6.930;2023-08-17T07:35:42;22.20;98.50
13322;DHT22;6730;46.248;6.930;2023-08-17T07:38:08;22.50;97.50
13322;DHT22;6730;46.248;6.930;2023-08-17T07:40:33;22.70;96.80
13322;DHT22;6730;46.248;6.930;2023-08-17T07:42:59;23.00;97.10
13322;DHT22;6730;46.248;6.930;2023-08-17T07:45:25;23.20;96.30
13322;DHT22;6730;46.248;6.930;2023-08-17T07:47:53;23.00;97.50
13322;DHT22;6730;46.248;6.930;2023-08-17T07:50:22;22.40;97.60
13322;DHT22;6730;46.248;6.930;2023-08-17T07:52:48;22.20;98.90
13322;DHT22;6730;46.248;6.930;2023-08-17T07:55:13;22.00;99.00
13322;DHT22;6730;46.248;6.930;2023-08-17T07:57:39;21.60;99.90
13322;DHT22;6730;46.248;6.930;2023-08-17T08:00:07;21.30;99.90
13322;DHT22;6730;46.248;6.930;2023-08-17T08:02:33;21.30;99.90
13322;DHT22;6730;46.248;6.930;2023-08-17T08:04:58;21.50;99.90
13322;DHT22;6730;46.248;6.930;2023-08-17T08:07:24;21.70;99.80
13322;DHT22;6730;46.248;6.930;2023-08-17T08:09:50;21.90;99.20
13322;DHT22;6730;46.248;6.930;2023-08-17T08:12:15;22.10;99.90
13322;DHT22;6730;46.248;6.930;2023-08-17T08:14:41;22.10;99.50
13322;DHT22;6730;46.248;6.930;2023-08-17T08:17:07;22.20;99.90
13322;DHT22;6730;46.248;6.930;2023-08-17T08:19:32;22.40;98.20
13322;DHT22;6730;46.248;6.930;2023-08-17T08:21:58;22.70;98.20
13322;DHT22;6730;46.248;6.930;2023-08-17T08:24:24;22.90;97.70
13322;DHT22;6730;46.248;6.930;2023-08-17T08:26:49;23.40;98.70
13322;DHT22;6730;46.248;6.930;2023-08-17T08:29:16;23.80;97.70
13322;DHT22;6730;46.248;6.930;2023-08-17T08:31:42;24.40;96.60
13322;DHT22;6730;46.248;6.930;2023-08-17T08:34:08;24.60;96.70
13322;DHT22;6730;46.248;6.930;2023-08-17T08:36:33;24.10;97.20
13322;DHT22;6730;46.248;6.930;2023-08-17T08:38:59;24.40;98.10
13322;DHT22;6730;46.248;6.930;2023-08-17T08:41:26;25.10;97.20
13322;DHT22;6730;46.248;6.930;2023-08-17T08:43:54;25.10;96.30
13322;DHT22;6730;46.248;6.930;2023-08-17T08:46:20;25.60;95.60
13322;DHT22;6730;46.248;6.930;2023-08-17T08:48:48;25.90;95.70
13322;DHT22;6730;46.248;6.930;2023-08-17T08:51:16;26.00;94.80
13322;DHT22;6730;46.248;6.930;2023-08-17T08:53:52;25.90;94.60
13322;DHT22;6730;46.248;6.930;2023-08-17T08:56:22;26.30;95.20
13322;DHT22;6730;46.248;6.930;2023-08-17T08:58:50;25.70;94.80
13322;DHT22;6730;46.248;6.930;2023-08-17T09:01:16;25.80;95.40
13322;DHT22;6730;46.248;6.930;2023-08-17T09:03:43;26.10;94.60
13322;DHT22;6730;46.248;6.930;2023-08-17T09:06:10;26.10;94.40
13322;DHT22;6730;46.248;6.930;2023-08-17T09:08:36;25.00;95.10
13322;DHT22;6730;46.248;6.930;2023-08-17T09:11:02;24.70;96.20
13322;DHT22;6730;46.248;6.930;2023-08-17T09:13:28;24.90;96.30
13322;DHT22;6730;46.248;6.930;2023-08-17T09:15:54;25.30;96.60
13322;DHT22;6730;46.248;6.930;2023-08-17T09:18:20;25.40;95.60
13322;DHT22;6730;46.248;6.930;2023-08-17T09:20:47;25.20;96.70
13322;DHT22;6730;46.248;6.930;2023-08-17T09:23:18;24.80;96.20
13322;DHT22;6730;46.248;6.930;2023-08-17T09:25:45;25.10;96.20
13322;DHT22;6730;46.248;6.930;2023-08-17T09:28:15;25.10;96.60
13322;DHT22;6730;46.248;6.930;2023-08-17T09:33:26;25.90;95.20
13322;DHT22;6730;46.248;6.930;2023-08-17T09:35:53;26.10;95.80
13322;DHT22;6730;46.248;6.930;2023-08-17T09:38:19;25.70;95.30
13322;DHT22;6730;46.248;6.930;2023-08-17T09:40:49;25.40;95.10
13322;DHT22;6730;46.248;6.930;2023-08-17T09:43:16;25.60;95.60
13322;DHT22;6730;46.248;6.930;2023-08-17T09:45:45;25.70;96.00
13322;DHT22;6730;46.248;6.930;2023-08-17T09:48:18;25.40;95.40
13322;DHT22;6730;46.248;6.930;2023-08-17T09:50:46;25.00;96.10
13322;DHT22;6730;46.248;6.930;2023-08-17T09:53:16;25.10;96.20
13322;DHT22;6730;46.248;6.930;2023-08-17T09:55:43;24.80;95.50
13322;DHT22;6730;46.248;6.930;2023-08-17T09:58:10;24.70;95.40
13322;DHT22;6730;46.248;6.930;2023-08-17T10:00:44;24.80;95.90
13322;DHT22;6730;46.248;6.930;2023-08-17T10:03:11;24.90;96.20
13322;DHT22;6730;46.248;6.930;2023-08-17T10:05:40;25.30;95.70
13322;DHT22;6730;46.248;6.930;2023-08-17T10:08:08;25.00;96.40
13322;DHT22;6730;46.248;6.930;2023-08-17T10:10:43;24.70;96.30
13322;DHT22;6730;46.248;6.930;2023-08-17T10:13:11;24.80;97.00
13322;DHT22;6730;46.248;6.930;2023-08-17T10:16:00;25.20;95.50
13322;DHT22;6730;46.248;6.930;2023-08-17T10:18:53;25.70;94.80
13322;DHT22;6730;46.248;6.930;2023-08-17T10:21:28;25.90;94.80
13322;DHT22;6730;46.248;6.930;2023-08-17T10:23:57;26.00;94.80
13322;DHT22;6730;46.248;6.930;2023-08-17T10:26:24;26.10;94.00
13322;DHT22;6730;46.248;6.930;2023-08-17T10:28:51;25.90;95.00
13322;DHT22;6730;46.248;6.930;2023-08-17T10:31:17;25.70;95.30
13322;DHT22;6730;46.248;6.930;2023-08-17T10:33:44;25.20;94.90
13322;DHT22;6730;46.248;6.930;2023-08-17T10:36:13;24.60;95.60
13322;DHT22;6730;46.248;6.930;2023-08-17T10:38:39;24.50;95.50
13322;DHT22;6730;46.248;6.930;2023-08-17T10:41:12;24.90;96.30
13322;DHT22;6730;46.248;6.930;2023-08-17T10:43:57;25.40;95.60
13322;DHT22;6730;46.248;6.930;2023-08-17T10:46:37;26.10;95.40
13322;DHT22;6730;46.248;6.930;2023-08-17T10:49:07;26.60;95.10
13322;DHT22;6730;46.248;6.930;2023-08-17T10:52:06;26.50;93.50
13322;DHT22;6730;46.248;6.930;2023-08-17T10:54:39;26.80;94.70
13322;DHT22;6730;46.248;6.930;2023-08-17T11:02:37;28.10;93.20
13322;DHT22;6730;46.248;6.930;2023-08-17T11:05:03;28.20;93.00
13322;DHT22;6730;46.248;6.930;2023-08-17T11:07:43;28.00;93.60
13322;DHT22;6730;46.248;6.930;2023-08-17T11:10:13;28.10;93.10
13322;DHT22;6730;46.248;6.930;2023-08-17T11:12:53;28.20;93.80
13322;DHT22;6730;46.248;6.930;2023-08-17T11:15:23;28.40;94.10
13322;DHT22;6730;46.248;6.930;2023-08-17T11:17:49;28.70;92.90
13322;DHT22;6730;46.248;6.930;2023-08-17T11:20:14;28.70;92.00
13322;DHT22;6730;46.248;6.930;2023-08-17T11:22:40;28.90;93.70
13322;DHT22;6730;46.248;6.930;2023-08-17T11:25:06;29.10;92.10
13322;DHT22;6730;46.248;6.930;2023-08-17T11:27:33;29.30;91.60
13322;DHT22;6730;46.248;6.930;2023-08-17T11:29:59;29.40;92.30
13322;DHT22;6730;46.248;6.930;2023-08-17T11:32:24;28.60;91.70
13322;DHT22;6730;46.248;6.930;2023-08-17T11:34:51;28.40;91.60
13322;DHT22;6730;46.248;6.930;2023-08-17T11:37:17;28.50;93.40
13322;DHT22;6730;46.248;6.930;2023-08-17T11:39:43;28.50;91.40
13322;DHT22;6730;46.248;6.930;2023-08-17T11:42:08;28.60;92.30
13322;DHT22;6730;46.248;6.930;2023-08-17T11:44:34;28.70;91.90
13322;DHT22;6730;46.248;6.930;2023-08-17T11:47:00;28.90;91.80
13322;DHT22;6730;46.248;6.930;2023-08-17T11:49:25;28.90;91.00
13322;DHT22;6730;46.248;6.930;2023-08-17T11:51:51;28.90;90.20
13322;DHT22;6730;46.248;6.930;2023-08-17T11:54:17;28.80;90.50
13322;DHT22;6730;46.248;6.930;2023-08-17T11:56:43;28.90;90.50
13322;DHT22;6730;46.248;6.930;2023-08-17T11:59:13;28.90;89.80
13322;DHT22;6730;46.248;6.930;2023-08-17T12:01:40;28.90;90.10
13322;DHT22;6730;46.248;6.930;2023-08-17T12:04:06;29.00;88.80
13322;DHT22;6730;46.248;6.930;2023-08-17T12:06:32;28.90;89.50
13322;DHT22;6730;46.248;6.930;2023-08-17T12:08:58;28.90;88.40
13322;DHT22;6730;46.248;6.930;2023-08-17T12:11:24;28.90;87.30
13322;DHT22;6730;46.248;6.930;2023-08-17T12:13:51;28.80;89.20
13322;DHT22;6730;46.248;6.930;2023-08-17T12:16:18;28.70;89.30
13322;DHT22;6730;46.248;6.930;2023-08-17T12:18:51;28.80;89.40
13322;DHT22;6730;46.248;6.930;2023-08-17T12:21:22;28.80;90.60
13322;DHT22;6730;46.248;6.930;2023-08-17T12:23:48;28.80;89.70
13322;DHT22;6730;46.248;6.930;2023-08-17T12:26:23;28.60;90.10
13322;DHT22;6730;46.248;6.930;2023-08-17T12:28:49;28.50;89.90
13322;DHT22;6730;46.248;6.930;2023-08-17T12:31:21;28.40;90.10
13322;DHT22;6730;46.248;6.930;2023-08-17T12:33:47;28.30;89.90
13322;DHT22;6730;46.248;6.930;2023-08-17T12:36:13;28.10;90.20
13322;DHT22;6730;46.248;6.930;2023-08-17T12:38:38;28.00;89.70
13322;DHT22;6730;46.248;6.930;2023-08-17T12:41:10;27.90;90.00
13322;DHT22;6730;46.248;6.930;2023-08-17T12:43:37;27.90;89.90
13322;DHT22;6730;46.248;6.930;2023-08-17T12:46:02;28.00;90.10
13322;DHT22;6730;46.248;6.930;2023-08-17T12:48:28;28.10;90.00
13322;DHT22;6730;46.248;6.930;2023-08-17T12:50:54;28.20;90.30
13322;DHT22;6730;46.248;6.930;2023-08-17T12:53:19;28.30;90.30
13322;DHT22;6730;46.248;6.930;2023-08-17T12:55:45;28.40;89.30
13322;DHT22;6730;46.248;6.930;2023-08-17T12:58:11;28.60;90.70
13322;DHT22;6730;46.248;6.930;2023-08-17T13:00:36;28.60;88.50
13322;DHT22;6730;46.248;6.930;2023-08-17T13:03:02;28.60;90.20
13322;DHT22;6730;46.248;6.930;2023-08-17T13:05:28;28.70;90.40
13322;DHT22;6730;46.248;6.930;2023-08-17T13:07:54;28.90;90.20
13322;DHT22;6730;46.248;6.930;2023-08-17T13:10:20;28.90;89.10
13322;DHT22;6730;46.248;6.930;2023-08-17T13:12:45;29.10;88.50
13322;DHT22;6730;46.248;6.930;2023-08-17T13:15:13;29.10;88.40
13322;DHT22;6730;46.248;6.930;2023-08-17T13:17:38;29.00;89.30
13322;DHT22;6730;46.248;6.930;2023-08-17T13:20:05;29.00;89.40
13322;DHT22;6730;46.248;6.930;2023-08-17T13:22:32;28.80;89.80
13322;DHT22;6730;46.248;6.930;2023-08-17T13:24:57;28.70;90.10
13322;DHT22;6730;46.248;6.930;2023-08-17T13:27:23;28.80;89.70
13322;DHT22;6730;46.248;6.930;2023-08-17T13:29:49;28.90;90.20
13322;DHT22;6730;46.248;6.930;2023-08-17T13:32:14;28.90;91.00
13322;DHT22;6730;46.248;6.930;2023-08-17T13:34:40;28.70;90.90
13322;DHT22;6730;46.248;6.930;2023-08-17T13:37:06;28.50;90.90
13322;DHT22;6730;46.248;6.930;2023-08-17T13:39:31;28.50;91.20
13322;DHT22;6730;46.248;6.930;2023-08-17T13:41:57;28.30;91.50
13322;DHT22;6730;46.248;6.930;2023-08-17T13:44:23;28.30;91.70
13322;DHT22;6730;46.248;6.930;2023-08-17T13:46:49;28.40;92.10
13322;DHT22;6730;46.248;6.930;2023-08-17T13:49:15;28.60;91.90
13322;DHT22;6730;46.248;6.930;2023-08-17T13:51:40;28.70;91.90
13322;DHT22;6730;46.248;6.930;2023-08-17T13:54:06;28.70;92.40
13322;DHT22;6730;46.248;6.930;2023-08-17T13:56:31;28.40;91.40
13322;DHT22;6730;46.248;6.930;2023-08-17T13:58:57;28.50;92.20
13322;DHT22;6730;46.248;6.930;2023-08-17T14:01:23;28.60;91.70
13322;DHT22;6730;46.248;6.930;2023-08-17T14:03:48;28.60;92.50
13322;DHT22;6730;46.248;6.930;2023-08-17T14:06:14;28.60;91.30
13322;DHT22;6730;46.248;6.930;2023-08-17T14:08:41;28.50;91.10
13322;DHT22;6730;46.248;6.930;2023-08-17T14:11:07;28.60;89.50
13322;DHT22;6730;46.248;6.930;2023-08-17T14:13:33;28.70;90.40
13322;DHT22;6730;46.248;6.930;2023-08-17T14:15:59;28.70;90.40
13322;DHT22;6730;46.248;6.930;2023-08-17T14:18:25;28.10;89.80
13322;DHT22;6730;46.248;6.930;2023-08-17T14:20:51;27.60;91.00
13322;DHT22;6730;46.248;6.930;2023-08-17T14:23:17;27.40;90.70
13322;DHT22;6730;46.248;6.930;2023-08-17T14:25:42;27.10;91.70
13322;DHT22;6730;46.248;6.930;2023-08-17T14:28:08;27.10;92.20
13322;DHT22;6730;46.248;6.930;2023-08-17T14:30:34;27.30;92.40
13322;DHT22;6730;46.248;6.930;2023-08-17T14:32:59;27.60;91.70
13322;DHT22;6730;46.248;6.930;2023-08-17T14:35:26;27.50;91.70
13322;DHT22;6730;46.248;6.930;2023-08-17T14:37:52;27.40;91.70
13322;DHT22;6730;46.248;6.930;2023-08-17T14:40:18;27.50;91.60
13322;DHT22;6730;46.248;6.930;2023-08-17T14:42:44;27.80;91.90
13322;DHT22;6730;46.248;6.930;2023-08-17T14:45:11;27.80;91.40
13322;DHT22;6730;46.248;6.930;2023-08-17T14:47:36;27.90;91.40
13322;DHT22;6730;46.248;6.930;2023-08-17T14:50:02;28.10;91.00
13322;DHT22;6730;46.248;6.930;2023-08-17T14:52:28;28.30;91.00
13322;DHT22;6730;46.248;6.930;2023-08-17T14:54:54;28.30;91.10
13322;DHT22;6730;46.248;6.930;2023-08-17T14:57:20;28.30;91.30
13322;DHT22;6730;46.248;6.930;2023-08-17T14:59:46;28.40;91.60
13322;DHT22;6730;46.248;6.930;2023-08-17T15:02:11;28.40;91.00
13322;DHT22;6730;46.248;6.930;2023-08-17T15:04:39;28.40;91.00
13322;DHT22;6730;46.248;6.930;2023-08-17T15:07:05;28.30;91.50
13322;DHT22;6730;46.248;6.930;2023-08-17T15:09:36;28.30;91.30
13322;DHT22;6730;46.248;6.930;2023-08-17T15:12:05;28.30;91.70
13322;DHT22;6730;46.248;6.930;2023-08-17T15:14:31;28.40;90.70
13322;DHT22;6730;46.248;6.930;2023-08-17T15:16:56;28.40;90.60
13322;DHT22;6730;46.248;6.930;2023-08-17T15:19:22;28.60;90.60
13322;DHT22;6730;46.248;6.930;2023-08-17T15:21:48;28.60;90.50
13322;DHT22;6730;46.248;6.930;2023-08-17T15:24:14;28.60;90.30
13322;DHT22;6730;46.248;6.930;2023-08-17T15:26:39;28.60;90.80
13322;DHT22;6730;46.248;6.930;2023-08-17T15:29:06;28.50;90.90
13322;DHT22;6730;46.248;6.930;2023-08-17T15:31:31;28.50;90.20
13322;DHT22;6730;46.248;6.930;2023-08-17T15:33:57;28.60;90.20
13322;DHT22;6730;46.248;6.930;2023-08-17T15:36:23;28.70;90.60
13322;DHT22;6730;46.248;6.930;2023-08-17T15:38:50;29.00;90.20
13322;DHT22;6730;46.248;6.930;2023-08-17T15:41:17;28.90;89.50
13322;DHT22;6730;46.248;6.930;2023-08-17T15:43:43;28.70;88.60
13322;DHT22;6730;46.248;6.930;2023-08-17T15:46:10;28.60;87.40
13322;DHT22;6730;46.248;6.930;2023-08-17T15:48:36;28.50;87.90
13322;DHT22;6730;46.248;6.930;2023-08-17T15:51:02;28.50;89.10
13322;DHT22;6730;46.248;6.930;2023-08-17T15:53:28;28.70;90.00